Time;durP1;ratioP1;P1;durP2;ratioP2;P2;SDS_P1;SDS_P2;PMS_P1;PMS_P2;Temp;Humidity;BMP_temperature;BMP_pressure;BME280_temperature;BME280_humidity;BME280_pressure;Samples;Min_cycle;Max_cycle;Signal;HPM_P1;HPM_P2
2021/01/29 00:02:24;;;;;;;0.47;0.43;;;;;;;11.70;100.00;99716.14;1866843;77;26213;-84
2021/01/29 00:04:54;;;;;;;1.20;0.50;;;;;;;11.73;100.00;99711.92;1866783;77;26731;-83
2021/01/29 00:07:25;;;;;;;0.83;0.57;;;;;;;11.66;100.00;99709.58;1866828;75;26698;-83
2021/01/29 00:09:55;;;;;;;1.10;0.63;;;;;;;11.64;100.00;99711.84;1866814;76;26287;-83
2021/01/29 00:12:25;;;;;;;1.80;0.60;;;;;;;11.59;100.00;99695.33;1866737;77;26201;-83
2021/01/29 00:14:59;;;;;;;1.90;0.70;;;;;;;11.57;100.00;99688.42;1866741;77;26194;-83
2021/01/29 00:17:29;;;;;;;3.00;0.60;;;;;;;11.55;100.00;99688.73;1866748;77;26291;-83
2021/01/29 00:19:59;;;;;;;2.30;0.60;;;;;;;11.53;100.00;99683.26;1866714;77;26268;-82
2021/01/29 00:22:29;;;;;;;1.40;0.40;;;;;;;11.49;100.00;99685.04;1866950;77;26257;-81
2021/01/29 00:24:58;;;;;;;1.77;0.53;;;;;;;11.42;100.00;99695.24;1866819;77;26287;-82
2021/01/29 00:27:29;;;;;;;1.00;0.43;;;;;;;11.44;100.00;99687.39;1866747;77;26198;-83
2021/01/29 00:29:59;;;;;;;0.40;0.40;;;;;;;11.40;100.00;99691.38;1866726;77;26606;-82
2021/01/29 00:32:29;;;;;;;2.13;0.50;;;;;;;11.41;100.00;99696.37;1866796;77;26719;-82
2021/01/29 00:34:59;;;;;;;1.70;0.40;;;;;;;11.33;100.00;99689.63;1866845;77;26194;-83
2021/01/29 00:37:29;;;;;;;2.90;0.40;;;;;;;11.30;100.00;99690.25;1866704;77;26194;-82
2021/01/29 00:39:59;;;;;;;2.80;0.57;;;;;;;11.37;100.00;99698.15;1866690;77;26293;-80
2021/01/29 00:42:29;;;;;;;1.77;0.60;;;;;;;11.38;100.00;99700.59;1866752;77;26190;-81
2021/01/29 00:44:58;;;;;;;0.87;0.33;;;;;;;11.34;100.00;99701.55;1866833;77;26194;-81
2021/01/29 00:47:28;;;;;;;0.87;0.37;;;;;;;11.26;100.00;99700.36;1866809;77;26264;-82
2021/01/29 00:49:58;;;;;;;2.17;0.50;;;;;;;11.24;100.00;99699.05;1866663;77;26275;-81
2021/01/29 00:52:28;;;;;;;2.20;0.60;;;;;;;11.23;100.00;99705.17;1866863;77;26194;-82
2021/01/29 00:54:58;;;;;;;1.40;0.40;;;;;;;11.26;100.00;99703.14;1866791;77;26201;-82
2021/01/29 00:57:28;;;;;;;1.63;0.50;;;;;;;11.28;100.00;99697.27;1866843;77;26201;-82
2021/01/29 00:59:57;;;;;;;2.00;0.50;;;;;;;11.24;100.00;99699.05;1866767;77;26665;-81
2021/01/29 01:02:28;;;;;;;5.97;1.00;;;;;;;11.23;100.00;99701.58;1866863;77;26636;-82
2021/01/29 01:04:57;;;;;;;3.73;0.97;;;;;;;11.23;100.00;99688.50;1866761;77;26710;-82
2021/01/29 01:07:27;;;;;;;8.13;1.93;;;;;;;11.18;100.00;99690.58;1866705;77;26320;-82
2021/01/29 01:09:57;;;;;;;5.57;1.30;;;;;;;11.24;100.00;99690.15;1866715;75;26253;-82
2021/01/29 01:12:27;;;;;;;7.20;1.50;;;;;;;11.27;100.00;99688.11;1866630;77;26198;-83
2021/01/29 01:14:58;;;;;;;8.90;1.70;;;;;;;11.26;100.00;99683.69;1866692;77;26252;-82
2021/01/29 01:17:28;;;;;;;8.80;2.07;;;;;;;11.25;100.00;99688.98;1866756;77;26198;-82
2021/01/29 01:19:58;;;;;;;9.77;2.20;;;;;;;11.27;100.00;99690.06;1866821;77;26210;-84
2021/01/29 01:22:31;;;;;;;15.77;2.93;;;;;;;11.33;100.00;99691.02;1866753;77;26625;-81
2021/01/29 01:25:01;;;;;;;13.30;2.53;;;;;;;11.34;100.00;99687.08;1866818;77;26241;-82
2021/01/29 01:27:31;;;;;;;14.20;2.70;;;;;;;11.36;100.00;99690.38;1797731;80;26782;-82
2021/01/29 01:30:01;;;;;;;18.93;3.97;;;;;;;11.33;100.00;99700.75;1797523;80;26766;-81
2021/01/29 01:32:31;;;;;;;16.73;3.23;;;;;;;11.39;100.00;99695.86;1878337;76;26687;-83
2021/01/29 01:35:01;;;;;;;21.60;3.37;;;;;;;11.35;100.00;99686.52;1874550;76;26253;-83
2021/01/29 01:37:31;;;;;;;13.87;2.40;;;;;;;11.32;100.00;99703.84;1866933;77;26771;-82
2021/01/29 01:40:02;;;;;;;16.47;3.13;;;;;;;11.29;100.00;99707.27;1866832;77;26798;-82
2021/01/29 01:42:32;;;;;;;21.20;3.77;;;;;;;11.27;100.00;99710.92;1866794;77;26605;-81
2021/01/29 01:45:02;;;;;;;20.90;4.50;;;;;;;11.29;100.00;99707.27;1866779;77;26292;-82
2021/01/29 01:47:34;;;;;;;22.40;3.93;;;;;;;11.24;100.00;99715.73;1866905;77;26714;-81
2021/01/29 01:50:08;;;;;;;22.07;4.30;;;;;;;11.23;100.00;99714.91;1867063;77;26206;-81
2021/01/29 01:52:40;;;;;;;23.00;5.03;;;;;;;11.20;100.00;99724.45;1866144;77;26636;-81
2021/01/29 01:55:14;;;;;;;20.97;3.73;;;;;;;11.19;100.00;99726.97;1866894;77;26719;-82
2021/01/29 01:57:47;;;;;;;24.23;4.67;;;;;;;11.14;100.00;99732.09;1866780;77;26204;-83
2021/01/29 02:00:22;;;;;;;24.33;4.93;;;;;;;11.15;100.00;99723.19;1866759;77;26272;-83
2021/01/29 02:02:54;;;;;;;29.47;5.70;;;;;;;11.11;100.00;99724.95;1866784;77;26257;-84
2021/01/29 02:05:27;;;;;;;24.00;4.70;;;;;;;11.11;100.00;99719.40;1866881;77;26640;-83
2021/01/29 02:07:59;;;;;;;23.10;4.60;;;;;;;11.04;100.00;99725.98;1866870;77;26610;-83
2021/01/29 02:10:31;;;;;;;19.87;3.67;;;;;;;11.01;100.00;99734.92;1866684;75;26684;-83
2021/01/29 02:13:03;;;;;;;22.53;4.57;;;;;;;11.03;100.00;99729.89;1866922;77;26249;-82
2021/01/29 02:15:36;;;;;;;27.07;4.73;;;;;;;10.92;100.00;99727.34;1866728;77;26206;-82
2021/01/29 02:18:10;;;;;;;18.10;4.07;;;;;;;10.93;100.00;99730.38;1866731;77;26618;-82
2021/01/29 02:21:16;;;;;;;14.37;3.77;;;;;;;10.89;100.00;99734.10;1866594;77;26625;-82
2021/01/29 02:24:44;;;;;;;20.80;4.43;;;;;;;10.83;100.00;99743.12;1866040;77;26222;-82
2021/01/29 02:27:44;;;;;;;19.23;3.53;;;;;;;10.83;100.00;99731.18;1772579;80;26650;-81
2021/01/29 02:30:49;;;;;;;21.53;4.13;;;;;;;10.76;100.00;99731.63;1878461;76;26193;-79
2021/01/29 02:33:54;;;;;;;19.07;3.87;;;;;;;10.81;100.00;99738.46;1797384;79;26672;-80
2021/01/29 02:36:36;;;;;;;17.23;4.10;;;;;;;10.68;100.00;99734.33;1876158;76;26353;-80
2021/01/29 02:39:33;;;;;;;24.67;5.43;;;;;;;10.71;100.00;99740.08;1865761;77;26713;-80
2021/01/29 02:42:19;;;;;;;23.07;4.63;;;;;;;10.69;100.00;99734.03;1861189;77;26202;-81
2021/01/29 02:44:58;;;;;;;19.63;4.40;;;;;;;10.63;100.00;99733.87;1866920;77;26198;-80
2021/01/29 02:47:31;;;;;;;25.17;4.50;;;;;;;10.62;100.00;99736.95;1866344;77;26303;-81
2021/01/29 02:50:29;;;;;;;19.40;4.43;;;;;;;10.64;100.00;99745.81;1866799;77;26766;-81
2021/01/29 02:53:02;;;;;;;25.37;4.67;;;;;;;10.60;100.00;99745.62;1865624;77;26671;-80
2021/01/29 02:55:35;;;;;;;20.07;4.37;;;;;;;10.54;100.00;99757.13;1866770;77;26249;-80
2021/01/29 02:58:09;;;;;;;22.97;4.40;;;;;;;10.47;100.00;99744.52;1866732;77;26194;-81
2021/01/29 03:00:42;;;;;;;26.07;4.93;;;;;;;10.45;100.00;99734.84;1866680;77;26210;-81
2021/01/29 03:03:17;;;;;;;21.07;4.10;;;;;;;10.54;100.00;99746.03;1866838;77;26303;-80
2021/01/29 03:05:51;;;;;;;23.13;4.13;;;;;;;10.48;100.00;99752.28;1866844;77;26218;-80
2021/01/29 03:08:24;;;;;;;24.20;4.83;;;;;;;10.41;100.00;99747.14;1866703;77;26267;-80
2021/01/29 03:10:58;;;;;;;23.70;4.50;;;;;;;10.38;100.00;99741.39;1866763;75;26266;-79
2021/01/29 03:13:31;;;;;;;20.70;5.30;;;;;;;10.41;100.00;99742.97;1866851;77;26202;-79
2021/01/29 03:16:05;;;;;;;20.33;3.60;;;;;;;10.38;100.00;99740.00;1866877;77;26389;-80
2021/01/29 03:18:38;;;;;;;24.80;4.80;;;;;;;10.41;100.00;99754.64;1866380;77;26617;-80
2021/01/29 03:21:11;;;;;;;26.97;5.43;;;;;;;10.39;100.00;99752.20;1866826;77;26218;-80
2021/01/29 03:23:44;;;;;;;23.70;5.70;;;;;;;10.34;100.00;99748.70;1866796;77;26668;-80
2021/01/29 03:26:17;;;;;;;25.80;4.90;;;;;;;10.33;100.00;99742.33;1866699;77;26251;-80
2021/01/29 03:28:51;;;;;;;22.23;4.57;;;;;;;10.27;100.00;99746.33;1866788;77;26698;-80
2021/01/29 03:31:24;;;;;;;22.30;4.60;;;;;;;10.31;100.00;99744.57;1866837;77;26268;-80
2021/01/29 03:33:58;;;;;;;20.70;4.33;;;;;;;10.31;100.00;99741.00;1866878;77;26207;-79
2021/01/29 03:36:31;;;;;;;17.50;4.00;;;;;;;10.22;100.00;99737.31;1867115;77;26600;-80
2021/01/29 03:39:05;;;;;;;21.83;4.20;;;;;;;10.24;100.00;99747.52;1866923;77;26272;-80
2021/01/29 03:41:37;;;;;;;18.57;3.70;;;;;;;10.21;100.00;99756.47;1866867;77;26213;-80
2021/01/29 03:44:11;;;;;;;25.17;4.87;;;;;;;10.25;100.00;99765.26;1866801;77;26206;-80
2021/01/29 03:46:45;;;;;;;23.87;4.40;;;;;;;10.29;100.00;99763.50;1865419;77;26212;-79
2021/01/29 03:49:20;;;;;;;24.93;4.97;;;;;;;10.42;100.00;99761.84;1866218;77;26206;-80
2021/01/29 03:52:02;;;;;;;25.30;4.50;;;;;;;10.35;100.00;99744.23;1866986;77;26646;-80
2021/01/29 03:54:35;;;;;;;21.67;3.63;;;;;;;10.25;100.00;99742.23;1866630;77;26660;-82
2021/01/29 03:57:09;;;;;;;18.83;4.23;;;;;;;10.15;100.00;99732.69;1866904;77;26193;-81
2021/01/29 03:59:42;;;;;;;18.17;3.80;;;;;;;10.04;100.00;99723.77;1866134;77;26279;-80
2021/01/29 04:02:16;;;;;;;19.47;3.80;;;;;;;10.10;100.00;99746.69;1864189;77;26278;-81
2021/01/29 04:04:52;;;;;;;20.63;4.40;;;;;;;10.11;100.00;99745.54;1866945;77;26637;-80
2021/01/29 04:07:25;;;;;;;22.83;4.57;;;;;;;10.04;100.00;99750.95;1866749;77;26714;-81
2021/01/29 04:09:59;;;;;;;24.20;4.53;;;;;;;10.04;100.00;99749.56;1866882;77;26206;-81
2021/01/29 04:12:32;;;;;;;22.97;5.00;;;;;;;10.10;100.00;99755.81;1798804;78;26239;-81
2021/01/29 04:15:08;;;;;;;22.43;4.77;;;;;;;10.08;100.00;99760.03;1828745;78;26332;-81
2021/01/29 04:17:41;;;;;;;25.07;4.60;;;;;;;10.08;100.00;99751.72;1878400;76;26210;-81
2021/01/29 04:20:16;;;;;;;20.97;4.03;;;;;;;10.17;100.00;99752.11;1878415;76;26209;-81
2021/01/29 04:22:49;;;;;;;14.13;3.20;;;;;;;10.23;100.00;99755.02;1878203;76;26193;-80
2021/01/29 04:25:23;;;;;;;23.67;4.33;;;;;;;10.25;100.00;99745.83;1877416;76;26212;-82
2021/01/29 04:27:57;;;;;;;18.87;4.03;;;;;;;10.24;100.00;99739.19;1866811;77;26728;-80
2021/01/29 04:30:30;;;;;;;24.00;4.03;;;;;;;10.30;100.00;99747.67;1866672;77;26675;-80
2021/01/29 04:33:03;;;;;;;15.00;3.77;;;;;;;10.31;100.00;99749.33;1866798;77;26206;-80
2021/01/29 04:35:35;;;;;;;19.87;4.57;;;;;;;10.21;100.00;99742.03;1866691;77;26328;-80
2021/01/29 04:38:10;;;;;;;20.63;3.93;;;;;;;10.08;100.00;99748.38;1866648;77;26213;-80
2021/01/29 04:40:47;;;;;;;20.87;3.40;;;;;;;10.09;100.00;99743.66;1866640;77;26201;-80
2021/01/29 04:43:38;;;;;;;19.30;3.97;;;;;;;10.21;100.00;99749.53;1866674;77;26713;-79
2021/01/29 04:46:35;;;;;;;23.97;4.10;;;;;;;10.20;100.00;99744.55;1865996;77;26198;-79
2021/01/29 04:49:08;;;;;;;18.10;4.50;;;;;;;10.21;100.00;99752.31;1866736;77;26286;-79
2021/01/29 04:52:10;;;;;;;28.13;5.63;;;;;;;10.24;100.00;99751.68;1866390;77;26203;-79
2021/01/29 04:54:53;;;;;;;17.70;3.80;;;;;;;10.23;100.00;99758.35;1833866;77;26285;-79
2021/01/29 04:58:02;;;;;;;22.13;4.50;;;;;;;10.16;100.00;99760.17;1866616;77;26732;-79
2021/01/29 05:01:09;;;;;;;20.37;3.93;;;;;;;10.06;100.00;99750.06;1844283;77;934792;-79
2021/01/29 05:04:13;;;;;;;18.97;4.10;;;;;;;10.07;100.00;99746.73;1744578;82;26966;-80
2021/01/29 05:07:14;;;;;;;17.43;4.67;;;;;;;10.07;100.00;99746.73;1804683;79;26247;-80
2021/01/29 05:10:04;;;;;;;26.07;4.53;;;;;;;10.07;100.00;99752.28;1744077;81;26788;-79
2021/01/29 05:12:59;;;;;;;27.40;4.43;;;;;;;10.05;100.00;99749.80;1804722;78;26332;-79
2021/01/29 05:15:48;;;;;;;19.10;3.97;;;;;;;10.08;100.00;99746.99;1726386;80;26227;-79
2021/01/29 05:19:29;;;;;;;20.20;3.80;;;;;;;10.10;100.00;99751.66;1804581;79;26703;-79
2021/01/29 05:22:24;;;;;;;16.83;3.47;;;;;;;10.08;100.00;99751.16;1744562;82;26329;-80
2021/01/29 05:25:12;;;;;;;21.90;4.30;;;;;;;10.04;100.00;99746.80;1804847;79;26389;-79
2021/01/29 05:27:55;;;;;;;16.17;3.40;;;;;;;10.02;100.00;99753.77;1744253;81;26725;-80
2021/01/29 05:30:47;;;;;;;23.23;4.07;;;;;;;10.08;100.00;99749.77;1804875;79;26718;-79
2021/01/29 05:33:38;;;;;;;16.83;3.90;;;;;;;10.08;100.00;99743.39;1724230;82;26718;-79
2021/01/29 05:36:23;;;;;;;15.87;3.60;;;;;;;10.09;100.00;99745.05;1805150;79;26793;-80
2021/01/29 05:39:07;;;;;;;16.50;3.03;;;;;;;10.16;100.00;99742.70;1805560;79;26379;-80
2021/01/29 05:42:01;;;;;;;14.17;3.17;;;;;;;10.18;100.00;99736.29;1805311;79;26318;-80
2021/01/29 05:45:02;;;;;;;14.50;3.00;;;;;;;10.21;100.00;99737.05;1770418;80;26316;-80
2021/01/29 05:48:19;;;;;;;14.17;3.30;;;;;;;10.11;100.00;99744.16;1773917;80;26280;-80
2021/01/29 05:51:19;;;;;;;18.47;3.90;;;;;;;10.11;100.00;99737.22;1770615;80;26660;-79
2021/01/29 05:54:23;;;;;;;30.37;9.50;;;;;;;10.04;100.00;99742.63;1754799;80;26329;-79
2021/01/29 05:57:21;;;;;;;21.53;5.30;;;;;;;10.04;100.00;99739.03;1769814;80;26766;-80
2021/01/29 05:59:59;;;;;;;14.03;3.50;;;;;;;9.94;100.00;99731.73;1770750;81;26326;-80
2021/01/29 06:03:13;;;;;;;15.47;3.93;;;;;;;9.99;100.00;99731.63;1770427;81;26658;-80
2021/01/29 06:06:11;;;;;;;15.43;3.13;;;;;;;9.97;100.00;99729.72;1770751;81;26235;-80
2021/01/29 06:08:55;;;;;;;15.60;3.80;;;;;;;9.94;100.00;99736.45;1766418;81;26233;-80
2021/01/29 06:11:44;;;;;;;17.20;4.07;;;;;;;10.02;100.00;99732.95;1770515;80;26303;-80
2021/01/29 06:14:58;;;;;;;12.30;3.80;;;;;;;10.01;100.00;99731.34;1770500;80;26678;-79
2021/01/29 06:17:58;;;;;;;13.20;3.20;;;;;;;9.99;100.00;99724.70;1772654;81;26305;-80
2021/01/29 06:20:50;;;;;;;14.30;3.10;;;;;;;10.01;100.00;99732.72;1767249;79;26277;-80
2021/01/29 06:23:42;;;;;;;15.80;3.20;;;;;;;10.02;100.00;99727.41;1804237;78;26320;-80
2021/01/29 06:26:52;;;;;;;14.17;3.60;;;;;;;9.97;100.00;99713.08;1805218;79;26653;-79
2021/01/29 06:29:29;;;;;;;13.33;3.10;;;;;;;9.89;100.00;99717.13;1734644;81;26699;-80
2021/01/29 06:32:49;;;;;;;11.27;2.60;;;;;;;9.89;100.00;99721.30;1744653;82;26234;-80
2021/01/29 06:35:52;;;;;;;13.27;3.33;;;;;;;9.88;100.00;99714.92;1668411;85;26872;-80
2021/01/29 06:38:32;;;;;;;9.17;2.43;;;;;;;9.73;100.00;99715.23;1669080;86;26261;-79
2021/01/29 06:41:38;;;;;;;12.53;3.03;;;;;;;9.81;100.00;99713.14;1669310;85;26378;-79
2021/01/29 06:44:17;;;;;;;12.43;2.60;;;;;;;9.72;100.00;99713.59;1664925;85;26267;-79
2021/01/29 06:46:53;;;;;;;12.77;2.47;;;;;;;9.71;100.00;99709.76;1668976;86;26354;-81
2021/01/29 06:49:38;;;;;;;13.77;3.10;;;;;;;9.64;100.00;99714.30;1669305;85;26356;-80
2021/01/29 06:52:22;;;;;;;9.47;2.20;;;;;;;9.63;100.00;99710.47;1669432;85;26799;-79
2021/01/29 06:55:36;;;;;;;12.37;3.10;;;;;;;9.56;100.00;99706.14;1669714;86;26773;-79
2021/01/29 06:58:29;;;;;;;16.90;3.23;;;;;;;9.62;100.00;99706.88;1622192;86;26275;-79
2021/01/29 07:01:11;;;;;;;16.53;3.67;;;;;;;9.51;100.00;99715.11;1669425;86;26457;-79
2021/01/29 07:04:21;;;;;;;9.17;2.47;;;;;;;9.48;100.00;99708.24;1669407;85;26356;-78
2021/01/29 07:07:01;;;;;;;11.13;2.60;;;;;;;9.53;100.00;99707.33;1669223;86;26447;-80
2021/01/29 07:09:40;;;;;;;13.90;2.73;;;;;;;9.53;100.00;99705.38;1733963;79;26204;-80
2021/01/29 07:12:41;;;;;;;12.27;2.80;;;;;;;9.48;100.00;99697.16;1804753;78;26707;-78
2021/01/29 07:15:17;;;;;;;9.57;2.63;;;;;;;9.55;100.00;99707.27;1762127;79;26212;-80
2021/01/29 07:18:19;;;;;;;12.20;2.70;;;;;;;9.65;100.00;99704.87;1804955;79;26699;-80
2021/01/29 07:21:06;;;;;;;11.70;2.37;;;;;;;9.57;100.00;99708.36;1805623;79;26636;-79
2021/01/29 07:23:54;;;;;;;12.47;2.23;;;;;;;9.52;100.00;99709.27;1805459;78;26389;-78
2021/01/29 07:26:40;;;;;;;15.27;3.10;;;;;;;9.60;100.00;99710.51;1805187;79;26742;-79
2021/01/29 07:29:24;;;;;;;11.87;2.77;;;;;;;9.53;100.00;99708.71;1804906;79;26821;-78
2021/01/29 07:32:01;;;;;;;8.73;2.37;;;;;;;9.50;100.00;99703.76;1805224;79;26220;-78
2021/01/29 07:34:37;;;;;;;16.40;3.57;;;;;;;9.45;100.00;99702.49;1805416;79;26292;-80
2021/01/29 07:37:43;;;;;;;15.93;2.50;;;;;;;9.57;100.00;99708.36;1805476;79;26241;-81
2021/01/29 07:40:23;;;;;;;9.93;2.63;;;;;;;9.60;100.00;99711.33;1744606;82;26243;-81
2021/01/29 07:43:30;;;;;;;14.63;2.90;;;;;;;9.77;100.00;99708.52;1805071;79;26314;-83
2021/01/29 07:46:15;;;;;;;17.93;3.27;;;;;;;9.66;100.00;99705.69;1719474;83;26265;-82
2021/01/29 07:49:11;;;;;;;15.93;3.33;;;;;;;9.62;100.00;99705.49;1719140;83;26657;-79
2021/01/29 07:51:45;;;;;;;14.13;2.80;;;;;;;9.57;100.00;99704.20;1719025;83;26762;-81
2021/01/29 07:54:30;;;;;;;12.47;2.93;;;;;;;9.58;100.00;99704.47;1719192;83;26843;-80
2021/01/29 07:57:08;;;;;;;14.53;3.00;;;;;;;9.53;100.00;99701.78;1718426;83;26764;-81
2021/01/29 08:00:00;;;;;;;13.43;3.10;;;;;;;9.50;100.00;99712.07;1718984;82;26277;-82
2021/01/29 08:02:51;;;;;;;14.53;3.30;;;;;;;9.64;100.00;99716.25;1719461;83;26263;-81
2021/01/29 08:05:26;;;;;;;13.17;2.90;;;;;;;9.72;100.00;99720.52;1719025;83;26662;-80
2021/01/29 08:07:58;;;;;;;8.77;2.80;;;;;;;9.72;100.00;99720.52;1719586;83;26619;-79
2021/01/29 08:10:34;;;;;;;15.77;3.30;;;;;;;9.71;100.00;99723.06;1719412;83;26697;-79
2021/01/29 08:13:09;;;;;;;8.17;2.07;;;;;;;9.76;100.00;99716.56;1719247;83;26402;-79
2021/01/29 08:15:45;;;;;;;11.83;2.70;;;;;;;9.76;100.00;99712.41;1719193;83;26328;-81
2021/01/29 08:18:29;;;;;;;13.67;2.73;;;;;;;9.76;100.00;99711.02;1719137;83;26743;-80
2021/01/29 08:21:34;;;;;;;16.37;2.50;;;;;;;9.90;100.00;99707.69;1787148;79;26204;-79
2021/01/29 08:24:08;;;;;;;10.87;2.50;;;;;;;9.85;100.00;99709.17;1744620;82;26266;-80
2021/01/29 08:26:46;;;;;;;13.87;2.83;;;;;;;9.84;100.00;99708.34;1805259;79;26357;-79
2021/01/29 08:29:32;;;;;;;17.10;2.63;;;;;;;9.77;100.00;99698.80;1804100;79;26329;-81
2021/01/29 08:32:36;;;;;;;17.37;3.13;;;;;;;9.77;100.00;99695.47;1804251;79;26710;-78
2021/01/29 08:35:24;;;;;;;17.10;5.83;;;;;;;9.85;100.00;99693.36;1789287;79;26678;-79
2021/01/29 08:37:59;;;;;;;20.57;8.00;;;;;;;9.80;100.00;99693.45;1805471;79;26806;-78
2021/01/29 08:40:35;;;;;;;17.07;6.60;;;;;;;9.83;100.00;99692.86;1805381;79;26727;-79
2021/01/29 08:43:27;;;;;;;13.23;3.93;;;;;;;9.83;100.00;99680.95;1805401;79;26353;-79
2021/01/29 08:46:09;;;;;;;14.33;3.50;;;;;;;9.84;100.00;99689.53;1789423;79;26267;-79
2021/01/29 08:49:10;;;;;;;12.10;3.10;;;;;;;9.86;100.00;99683.92;1744573;82;26323;-79
2021/01/29 08:51:44;;;;;;;15.67;3.90;;;;;;;9.91;100.00;99674.67;1804804;79;26358;-79
2021/01/29 08:54:40;;;;;;;16.60;3.87;;;;;;;9.94;100.00;99674.05;1768765;80;26317;-79
2021/01/29 08:57:19;;;;;;;13.50;3.10;;;;;;;10.02;100.00;99664.42;1805620;79;26346;-79
2021/01/29 08:59:50;;;;;;;14.67;3.80;;;;;;;9.95;100.00;99667.38;1744662;82;26264;-80
2021/01/29 09:02:27;;;;;;;16.53;3.73;;;;;;;10.00;100.00;99663.94;1805384;79;26287;-79
2021/01/29 09:05:00;;;;;;;12.00;3.50;;;;;;;10.03;100.00;99656.94;1805294;79;26300;-80
2021/01/29 09:07:33;;;;;;;13.50;3.10;;;;;;;10.01;100.00;99659.21;1744619;82;26252;-80
2021/01/29 09:10:15;;;;;;;9.40;2.70;;;;;;;9.90;100.00;99661.37;1805198;79;26687;-81
2021/01/29 09:12:46;;;;;;;11.23;2.90;;;;;;;9.85;100.00;99660.08;1805450;79;26301;-81
2021/01/29 09:15:23;;;;;;;17.87;4.23;;;;;;;9.81;100.00;99660.45;1744474;80;26912;-83
2021/01/29 09:17:58;;;;;;;17.80;5.10;;;;;;;9.78;100.00;99651.37;1805422;79;26729;-85
2021/01/29 09:20:31;;;;;;;13.00;4.10;;;;;;;9.75;100.00;99649.22;1805428;79;26744;-82
2021/01/29 09:23:04;;;;;;;12.57;3.77;;;;;;;9.71;100.00;99643.22;1742973;82;26274;-83
2021/01/29 09:25:41;;;;;;;7.70;2.97;;;;;;;9.68;100.00;99646.02;1805530;79;26649;-75
2021/01/29 09:28:13;;;;;;;11.97;2.80;;;;;;;9.68;100.00;99639.65;1805134;79;26229;-76
2021/01/29 09:30:52;;;;;;;17.73;3.47;;;;;;;9.60;100.00;99636.48;1744529;82;26421;-77
2021/01/29 09:33:27;;;;;;;12.87;3.00;;;;;;;9.62;100.00;99625.09;1805579;79;26314;-80
2021/01/29 09:36:00;;;;;;;14.50;3.23;;;;;;;9.65;100.00;99634.73;1767786;80;26271;-77
2021/01/29 09:38:33;;;;;;;15.07;2.37;;;;;;;9.62;100.00;99636.75;1770630;80;26765;-76
2021/01/29 09:41:10;;;;;;;12.83;2.93;;;;;;;9.71;100.00;99634.34;1770438;80;26705;-77
2021/01/29 09:43:57;;;;;;;10.83;2.57;;;;;;;9.73;100.00;99629.28;1770659;81;26326;-79
2021/01/29 09:46:30;;;;;;;15.70;3.40;;;;;;;9.74;100.00;99625.39;1770560;81;26271;-77
2021/01/29 09:49:03;;;;;;;7.87;2.30;;;;;;;9.70;100.00;99625.75;1770747;80;26256;-79
2021/01/29 09:51:59;;;;;;;14.50;2.77;;;;;;;9.72;100.00;99624.86;1770650;81;26329;-80
2021/01/29 09:54:36;;;;;;;11.80;2.67;;;;;;;9.64;100.00;99624.20;1770534;80;26291;-78
2021/01/29 09:57:10;;;;;;;14.50;3.00;;;;;;;9.72;100.00;99624.86;1770484;81;26255;-79
2021/01/29 09:59:47;;;;;;;14.50;2.90;;;;;;;9.77;100.00;99621.16;1770788;81;26236;-78
2021/01/29 10:02:27;;;;;;;15.53;3.50;;;;;;;9.78;100.00;99629.19;1770575;81;26341;-79
2021/01/29 10:05:04;;;;;;;13.73;3.10;;;;;;;9.78;100.00;99628.36;1770473;81;26327;-78
2021/01/29 10:07:38;;;;;;;10.67;3.40;;;;;;;9.77;100.00;99633.64;1770607;80;26243;-78
2021/01/29 10:10:12;;;;;;;11.53;3.33;;;;;;;9.67;100.00;99624.96;1770518;81;26747;-78
2021/01/29 10:12:44;;;;;;;8.00;2.97;;;;;;;9.74;100.00;99631.50;1770649;81;26327;-78
2021/01/29 10:15:18;;;;;;;14.00;3.70;;;;;;;9.68;100.00;99638.27;1770446;79;26319;-77
2021/01/29 10:17:55;;;;;;;16.87;5.63;;;;;;;9.68;100.00;99641.86;1770860;81;26345;-78
2021/01/29 10:20:27;;;;;;;16.50;3.53;;;;;;;9.77;100.00;99640.58;1770862;81;26313;-77
2021/01/29 10:23:17;;;;;;;13.27;3.63;;;;;;;9.80;100.00;99645.49;1770462;80;26255;-79
2021/01/29 10:26:10;;;;;;;14.50;3.63;;;;;;;9.75;100.00;99640.08;1770493;81;26729;-79
2021/01/29 10:29:05;;;;;;;12.83;3.83;;;;;;;9.83;100.00;99648.50;1770613;81;26245;-79
2021/01/29 10:31:47;;;;;;;13.93;3.23;;;;;;;9.81;100.00;99661.83;1765252;80;26352;-77
2021/01/29 10:34:25;;;;;;;18.00;4.53;;;;;;;9.95;100.00;99668.77;1770599;81;26335;-80
2021/01/29 10:37:02;;;;;;;13.80;3.37;;;;;;;9.99;100.00;99680.31;1770621;81;26739;-80
2021/01/29 10:39:37;;;;;;;12.43;3.50;;;;;;;9.84;100.00;99678.44;1770603;81;26232;-81
2021/01/29 10:42:11;;;;;;;16.40;4.10;;;;;;;9.68;100.00;99683.45;1770678;81;26606;-81
2021/01/29 10:44:43;;;;;;;16.47;4.80;;;;;;;9.72;100.00;99685.86;1770681;81;26694;-79
2021/01/29 10:47:24;;;;;;;20.13;9.10;;;;;;;9.71;100.00;99702.27;1770566;80;26239;-80
2021/01/29 10:49:59;;;;;;;14.23;6.23;;;;;;;9.69;100.00;99707.28;1770664;81;26726;-79
2021/01/29 10:52:42;;;;;;;12.27;4.80;;;;;;;9.74;100.00;99721.05;1770512;80;26231;-78
2021/01/29 10:55:22;;;;;;;14.60;4.87;;;;;;;9.67;100.00;99721.20;1770501;80;26654;-78
2021/01/29 10:58:24;;;;;;;12.60;4.67;;;;;;;9.73;100.00;99730.49;1770559;81;26298;-78
2021/01/29 11:00:57;;;;;;;16.53;5.57;;;;;;;9.81;100.00;99737.27;1753614;80;26686;-78
2021/01/29 11:03:56;;;;;;;10.23;3.30;;;;;;;9.83;100.00;99747.50;1770602;80;26322;-79
2021/01/29 11:06:29;;;;;;;13.30;2.93;;;;;;;9.89;100.00;99760.13;1770485;81;26723;-79
2021/01/29 11:09:02;;;;;;;8.63;2.50;;;;;;;9.89;100.00;99772.60;1770620;80;26788;-83
2021/01/29 11:11:35;;;;;;;12.33;2.73;;;;;;;9.87;100.00;99783.20;1770674;80;26264;-82
2021/01/29 11:14:13;;;;;;;9.50;2.50;;;;;;;9.92;100.00;99797.80;1770740;80;26325;-81
2021/01/29 11:16:47;;;;;;;12.03;3.27;;;;;;;9.90;100.00;99808.92;1770435;80;26739;-83
2021/01/29 11:19:22;;;;;;;14.67;3.10;;;;;;;9.93;100.00;99830.50;1770617;81;26691;-83
2021/01/29 11:22:06;;;;;;;10.90;2.60;;;;;;;9.89;100.00;99820.58;1770651;81;26364;-82
2021/01/29 11:24:42;;;;;;;10.63;2.53;;;;;;;9.92;100.00;99829.70;1770638;80;26341;-80
2021/01/29 11:27:17;;;;;;;10.30;2.40;;;;;;;10.01;100.00;99839.52;1770591;81;26722;-79
2021/01/29 11:29:51;;;;;;;10.80;2.90;;;;;;;10.16;100.00;99855.08;1770830;80;26346;-85
2021/01/29 11:32:29;;;;;;;7.83;2.27;;;;;;;10.27;100.00;99862.89;1770757;81;26647;-82
2021/01/29 11:35:11;;;;;;;11.10;2.50;;;;;;;10.26;100.00;99876.53;1770723;81;26281;-82
2021/01/29 11:37:46;;;;;;;11.37;3.07;;;;;;;10.41;100.00;99880.95;1770176;80;26702;-82
2021/01/29 11:40:20;;;;;;;5.87;1.70;;;;;;;10.50;100.00;99893.81;1770567;81;26225;-81
2021/01/29 11:42:55;;;;;;;7.10;1.30;;;;;;;10.43;100.00;99899.52;1770322;80;26264;-82
2021/01/29 11:45:29;;;;;;;3.93;1.00;;;;;;;10.40;100.00;99903.72;1770283;81;26247;-84
2021/01/29 11:48:07;;;;;;;2.70;1.10;;;;;;;10.40;100.00;99907.88;1770650;80;26384;-81
2021/01/29 11:50:38;;;;;;;4.57;1.17;;;;;;;10.35;100.00;99914.11;1769830;80;26293;-78
2021/01/29 11:53:11;;;;;;;2.97;1.57;;;;;;;10.33;100.00;99926.08;1770504;80;26404;-80
2021/01/29 11:55:48;;;;;;;3.87;1.20;;;;;;;10.38;100.00;99930.14;1744421;82;26250;-81
2021/01/29 11:58:23;;;;;;;4.03;1.20;;;;;;;10.46;100.00;99946.09;1805335;79;26382;-83
2021/01/29 12:00:57;;;;;;;3.07;1.03;;;;;;;10.46;100.00;99951.64;1744186;82;26235;-84
2021/01/29 12:03:33;;;;;;;4.87;1.27;;;;;;;10.43;100.00;99949.48;1805205;79;26231;-83
2021/01/29 12:06:08;;;;;;;7.07;1.30;;;;;;;10.48;100.00;99954.36;1744045;81;26322;-82
2021/01/29 12:08:58;;;;;;;4.10;1.03;;;;;;;10.50;100.00;99966.55;1804890;79;26855;-83
2021/01/29 12:11:33;;;;;;;2.83;0.70;;;;;;;10.47;100.00;99969.39;1805237;79;26270;-85
2021/01/29 12:14:20;;;;;;;1.83;0.90;;;;;;;10.41;100.00;99973.38;1744749;82;26654;-88
2021/01/29 12:16:57;;;;;;;3.63;1.27;;;;;;;10.36;100.00;99967.09;1805121;78;26350;-84
2021/01/29 12:19:32;;;;;;;2.83;0.90;;;;;;;10.40;100.00;99978.67;1744405;82;26677;-87
2021/01/29 12:22:18;;;;;;;5.40;1.43;;;;;;;10.48;100.00;99970.22;1805398;79;26720;-88
2021/01/29 12:24:57;;;;;;;3.13;0.93;;;;;;;10.56;100.00;99967.30;1805254;78;26319;-82